createdAt,value
2023-04-20T06:20:59.944Z,21.29
2023-04-20T06:30:59.892Z,23.78
2023-04-20T06:40:59.951Z,22.33
2023-04-20T06:50:59.812Z,22.15
2023-04-20T07:00:59.883Z,19.76
2023-04-20T07:10:59.882Z,19.52
2023-04-20T07:20:59.869Z,21.82
2023-04-20T07:31:00.095Z,24.27
2023-04-20T07:40:59.937Z,24.82
2023-04-20T07:50:59.939Z,18.41
2023-04-20T08:00:59.899Z,18.47
2023-04-20T08:11:00.031Z,24.55
2023-04-20T08:20:59.986Z,21.84
2023-04-20T08:31:00.002Z,21.04
2023-04-20T08:41:00.066Z,20.52
2023-04-20T08:51:00.297Z,24.36
2023-04-20T09:01:00.297Z,25.92
2023-04-20T09:11:00.129Z,27.63
2023-04-20T09:21:00.293Z,29.26
2023-04-20T09:31:00.280Z,24.07
2023-04-20T09:41:00.222Z,30.75
2023-04-20T09:51:00.187Z,32.48
2023-04-20T10:01:00.190Z,26.87
2023-04-20T10:11:00.178Z,31.99
2023-04-20T10:21:00.125Z,33.41
2023-04-20T10:31:00.274Z,32.72
2023-04-20T10:41:00.288Z,31.59
2023-04-20T10:51:00.347Z,29.45
2023-04-20T11:01:00.247Z,35.44
2023-04-20T11:11:00.383Z,30.03
2023-04-20T11:21:00.227Z,17.18
2023-04-20T11:31:00.419Z,26.49
2023-04-20T11:41:00.078Z,23.79
2023-04-20T11:51:00.231Z,32.45
2023-04-20T12:01:00.228Z,34.01
2023-04-20T12:11:00.207Z,0.00
2023-04-20T12:21:00.220Z,8.89
2023-04-20T12:31:01.489Z,24.69
2023-04-20T12:41:00.326Z,19.85
2023-04-20T12:51:00.438Z,35.60
2023-04-20T13:01:00.303Z,25.64
2023-04-20T13:11:00.353Z,25.42
2023-04-20T13:21:00.314Z,23.62
2023-04-20T13:31:00.290Z,26.39
2023-04-20T13:41:00.348Z,25.38
2023-04-20T13:51:00.430Z,27.99
2023-04-20T14:01:00.439Z,25.80
2023-04-20T14:11:00.424Z,26.09
2023-04-20T14:21:00.465Z,24.89
2023-04-20T14:31:00.696Z,26.23
2023-04-20T14:41:00.588Z,24.80
2023-04-20T14:51:00.779Z,22.82
2023-04-20T15:01:00.786Z,28.03
2023-04-20T15:11:00.595Z,25.86
2023-04-20T15:21:00.668Z,26.93
2023-04-20T15:31:00.604Z,23.50
2023-04-20T15:41:00.842Z,19.53
2023-04-20T15:51:00.617Z,12.76
2023-04-20T16:01:00.713Z,10.12
2023-04-20T16:11:00.596Z,10.56
2023-04-20T16:21:00.858Z,11.40
2023-04-20T16:31:01.014Z,10.76
2023-04-20T16:41:00.810Z,13.99
2023-04-20T16:51:00.962Z,16.56
2023-04-20T17:01:00.923Z,17.69
2023-04-20T17:11:00.834Z,14.47
2023-04-20T17:21:00.940Z,10.92
2023-04-20T17:31:00.760Z,10.92
2023-04-20T17:41:00.753Z,14.22
2023-04-20T17:51:01.206Z,13.06
2023-04-20T18:01:01.002Z,14.08
2023-04-20T18:11:00.888Z,11.06
2023-04-20T18:21:00.940Z,9.91
2023-04-20T18:31:01.029Z,7.90
2023-04-20T18:41:00.994Z,7.63
2023-04-20T18:51:00.938Z,7.23
2023-04-20T19:01:01.017Z,6.83
2023-04-20T19:11:00.898Z,5.12
2023-04-20T19:21:01.057Z,4.06
